Terminal Aerodrome Forecast
Issued by NWS Upton, NY

Home | Current Version | Previous Version | Text Only | Print | Product List | Glossary On
Versions: 1 2 3 4 5 6 7 8 9 10 11 12 13 14 15 16 17 18 19 20 21 22 23 24 25 26 27 28 29 30 31 32
000
FTUS41 KOKX 290212 AAA
TAFLGA
TAF AMD
KLGA 290212Z 2902/2924 19008KT P6SM SCT110 SCT250
     FM290800 22005KT P6SM SKC
     FM291500 19009KT P6SM SCT250
     FM292100 18015KT P6SM BKN200=

USA.gov is the U.S. government's official web portal to all federal, state and local government web resources and services.